createdAt,value
2019-03-25T00:00:30.097Z,13.80
2019-03-25T00:01:30.110Z,12.00
2019-03-25T00:02:30.124Z,10.20
2019-03-25T00:03:30.141Z,7.80
2019-03-25T00:04:30.149Z,12.60
2019-03-25T00:05:30.165Z,9.80
2019-03-25T00:06:30.177Z,11.80
2019-03-25T00:07:30.190Z,9.90
2019-03-25T00:08:30.203Z,8.90
2019-03-25T00:09:30.214Z,9.90
2019-03-25T00:10:30.227Z,12.30
2019-03-25T00:11:30.240Z,9.20
2019-03-25T00:12:30.252Z,9.60
2019-03-25T00:13:30.265Z,13.30
2019-03-25T00:14:30.280Z,12.00
2019-03-25T00:15:30.292Z,11.40
2019-03-25T00:16:30.305Z,14.40
2019-03-25T00:17:30.315Z,11.50
2019-03-25T00:18:30.341Z,12.60
2019-03-25T00:19:30.344Z,15.00
2019-03-25T00:20:30.361Z,12.10
2019-03-25T00:21:30.368Z,8.00
2019-03-25T00:22:30.383Z,10.80
2019-03-25T00:23:30.395Z,7.70
2019-03-25T00:24:38.678Z,13.80
2019-03-25T00:25:30.422Z,12.70
2019-03-25T00:26:30.435Z,10.10
2019-03-25T00:27:30.445Z,11.80
2019-03-25T00:28:30.460Z,9.00
2019-03-25T00:29:30.471Z,7.70
2019-03-25T00:30:30.486Z,11.00
2019-03-25T00:31:30.496Z,10.00
2019-03-25T00:32:30.509Z,9.80
2019-03-25T00:33:30.571Z,11.20
2019-03-25T00:34:30.535Z,11.90
2019-03-25T00:35:30.545Z,10.40
2019-03-25T00:36:30.564Z,9.80
2019-03-25T00:37:30.572Z,11.80
2019-03-25T00:38:30.587Z,11.20
2019-03-25T00:39:30.600Z,7.40
2019-03-25T00:40:30.611Z,10.50
2019-03-25T00:41:30.624Z,11.20
2019-03-25T00:42:30.637Z,10.10
2019-03-25T00:43:30.649Z,12.90
2019-03-25T00:44:30.661Z,9.60
2019-03-25T00:45:30.674Z,9.90
2019-03-25T00:46:30.687Z,10.20
2019-03-25T00:47:30.700Z,12.80
2019-03-25T00:48:30.714Z,7.70
2019-03-25T00:49:30.725Z,9.20
2019-03-25T00:50:30.739Z,8.10
2019-03-25T00:51:30.753Z,9.50
2019-03-25T00:52:30.765Z,11.30
2019-03-25T00:53:30.797Z,12.90
2019-03-25T00:54:30.824Z,8.60
2019-03-25T00:55:30.877Z,8.50
2019-03-25T00:56:30.874Z,5.80
2019-03-25T00:57:30.866Z,7.70
2019-03-25T00:58:30.869Z,12.40
2019-03-25T00:59:30.898Z,9.90
2019-03-25T01:00:30.935Z,11.60
2019-03-25T01:01:30.931Z,9.30
2019-03-25T01:02:30.928Z,11.10
2019-03-25T01:03:30.929Z,9.80
2019-03-25T01:04:30.967Z,11.10
2019-03-25T01:05:30.948Z,10.60
2019-03-25T01:06:30.947Z,10.00
2019-03-25T01:07:30.959Z,11.10
2019-03-25T01:08:30.971Z,9.70
2019-03-25T01:09:30.986Z,11.10
2019-03-25T01:10:30.999Z,8.50
2019-03-25T01:11:31.012Z,10.70
2019-03-25T01:12:31.029Z,8.70
2019-03-25T01:13:31.035Z,6.10
2019-03-25T01:14:31.100Z,11.20
2019-03-25T01:15:31.073Z,6.60
2019-03-25T01:16:31.080Z,9.30
2019-03-25T01:17:31.088Z,12.30
2019-03-25T01:18:31.104Z,10.70
2019-03-25T01:19:31.117Z,8.00
2019-03-25T01:20:31.130Z,11.70
2019-03-25T01:21:31.142Z,8.00
2019-03-25T01:22:31.155Z,9.20
2019-03-25T01:23:31.173Z,12.90
2019-03-25T01:24:31.185Z,9.30
2019-03-25T01:25:31.195Z,9.10
2019-03-25T01:26:31.208Z,11.20
2019-03-25T01:27:31.223Z,12.50
2019-03-25T01:28:31.239Z,16.70
2019-03-25T01:29:31.247Z,7.30
2019-03-25T01:30:31.261Z,8.60
2019-03-25T01:31:31.275Z,10.90
2019-03-25T01:32:31.286Z,12.30
2019-03-25T01:33:31.297Z,7.90
2019-03-25T01:34:31.314Z,10.00
2019-03-25T01:35:31.326Z,8.60
2019-03-25T01:36:31.337Z,11.70
2019-03-25T01:37:31.350Z,9.80
2019-03-25T01:38:31.363Z,10.10
2019-03-25T01:39:31.378Z,13.40
2019-03-25T01:40:31.391Z,7.00
2019-03-25T01:41:31.404Z,10.80
2019-03-25T01:42:31.417Z,12.50
2019-03-25T01:43:31.430Z,13.70
2019-03-25T01:44:31.442Z,12.70
2019-03-25T01:45:31.455Z,12.10
2019-03-25T01:46:31.469Z,8.00
2019-03-25T01:47:31.482Z,8.10
2019-03-25T01:48:31.493Z,10.60
2019-03-25T01:49:31.522Z,8.00
2019-03-25T01:50:31.519Z,12.90
2019-03-25T01:51:31.533Z,9.90
2019-03-25T01:52:31.546Z,8.60
2019-03-25T01:53:31.560Z,10.10
2019-03-25T01:54:31.572Z,9.80
2019-03-25T01:55:31.585Z,8.80
2019-03-25T01:56:31.594Z,10.00
2019-03-25T01:57:31.612Z,8.10
2019-03-25T01:58:31.625Z,17.40
2019-03-25T01:59:31.638Z,11.30
2019-03-25T02:00:31.653Z,6.80
2019-03-25T02:01:31.663Z,10.00
2019-03-25T02:02:31.686Z,6.50
2019-03-25T02:03:31.688Z,10.20
2019-03-25T02:04:31.703Z,12.60
2019-03-25T02:05:31.715Z,10.70
2019-03-25T02:06:31.726Z,12.30
2019-03-25T02:07:31.740Z,9.30
2019-03-25T02:08:31.755Z,9.70
2019-03-25T02:09:31.767Z,7.90
2019-03-25T02:10:31.779Z,10.40
2019-03-25T02:11:31.792Z,11.90
2019-03-25T02:12:31.809Z,8.10
2019-03-25T02:13:31.815Z,12.60
2019-03-25T02:14:31.828Z,9.40
2019-03-25T02:15:31.845Z,9.40
2019-03-25T02:16:31.858Z,9.70
2019-03-25T02:17:31.871Z,12.90
2019-03-25T02:18:31.881Z,12.90
2019-03-25T02:19:31.894Z,12.30
2019-03-25T02:20:31.908Z,13.50
2019-03-25T02:21:31.927Z,10.10
2019-03-25T02:22:31.981Z,9.70
2019-03-25T02:23:31.944Z,11.50
2019-03-25T02:24:31.961Z,10.50
2019-03-25T02:25:31.971Z,11.40
2019-03-25T02:26:31.983Z,8.10
2019-03-25T02:27:31.998Z,9.50
2019-03-25T02:28:32.010Z,8.20
2019-03-25T02:29:32.023Z,10.50
2019-03-25T02:30:32.042Z,7.30
2019-03-25T02:31:32.057Z,10.70
2019-03-25T02:32:32.074Z,13.40
2019-03-25T02:33:32.075Z,10.40
2019-03-25T02:34:32.092Z,7.10
2019-03-25T02:35:32.104Z,10.50
2019-03-25T02:36:32.113Z,7.00
2019-03-25T02:37:32.124Z,8.80
2019-03-25T02:38:32.138Z,9.40
2019-03-25T02:39:32.152Z,7.60
2019-03-25T02:40:32.167Z,8.40
2019-03-25T02:41:32.176Z,10.90
2019-03-25T02:42:32.188Z,7.00
2019-03-25T02:43:32.212Z,9.30
2019-03-25T02:44:32.213Z,10.30
2019-03-25T02:45:32.231Z,12.20
2019-03-25T02:46:32.241Z,9.30
2019-03-25T02:47:32.253Z,12.10
2019-03-25T02:48:32.265Z,9.40
2019-03-25T02:49:32.277Z,12.70
2019-03-25T02:50:32.289Z,8.30
2019-03-25T02:51:32.305Z,11.00
2019-03-25T02:52:32.311Z,10.90
2019-03-25T02:53:32.329Z,12.20
2019-03-25T02:54:32.341Z,8.30
2019-03-25T02:55:41.355Z,11.10
2019-03-25T02:56:32.371Z,12.00
2019-03-25T02:57:32.376Z,10.50
2019-03-25T02:58:32.392Z,8.00
2019-03-25T02:59:32.406Z,9.10
2019-03-25T03:00:32.415Z,8.40
2019-03-25T03:01:32.427Z,8.70
2019-03-25T03:02:32.441Z,9.20
2019-03-25T03:03:32.453Z,9.30
2019-03-25T03:04:32.463Z,10.70
2019-03-25T03:05:32.475Z,8.70
2019-03-25T03:06:32.490Z,10.00
2019-03-25T03:07:32.501Z,13.10
2019-03-25T03:08:32.512Z,8.40
2019-03-25T03:09:32.527Z,8.10
2019-03-25T03:10:32.540Z,8.80
2019-03-25T03:11:32.553Z,10.70
2019-03-25T03:12:32.562Z,9.00
2019-03-25T03:13:32.579Z,8.00
2019-03-25T03:14:32.589Z,9.10
2019-03-25T03:15:32.600Z,8.90
2019-03-25T03:16:32.629Z,9.80
2019-03-25T03:17:32.697Z,11.70
2019-03-25T03:18:32.694Z,10.20
2019-03-25T03:19:32.697Z,6.60
2019-03-25T03:20:32.694Z,8.40
2019-03-25T03:21:32.699Z,8.00
2019-03-25T03:22:32.757Z,10.00
2019-03-25T03:23:32.760Z,8.40
2019-03-25T03:24:32.753Z,10.60
2019-03-25T03:25:32.754Z,9.10
2019-03-25T03:26:32.761Z,11.50
2019-03-25T03:27:32.770Z,8.30
2019-03-25T03:28:32.761Z,7.70
2019-03-25T03:29:32.777Z,13.60
2019-03-25T03:30:32.891Z,7.70
2019-03-25T03:31:32.806Z,9.00
2019-03-25T03:32:32.818Z,7.00
2019-03-25T03:33:32.823Z,4.70
2019-03-25T03:34:32.835Z,7.60
2019-03-25T03:35:32.847Z,8.20
2019-03-25T03:36:32.858Z,7.40
2019-03-25T03:37:32.871Z,10.00
2019-03-25T03:38:32.884Z,9.50
2019-03-25T03:39:32.897Z,8.80
2019-03-25T03:40:32.913Z,8.60
2019-03-25T03:41:32.923Z,7.30
2019-03-25T03:42:32.935Z,7.50
2019-03-25T03:43:32.947Z,8.60
2019-03-25T03:44:32.972Z,8.30
2019-03-25T03:45:32.973Z,8.90
2019-03-25T03:46:32.983Z,10.30
2019-03-25T03:47:33.012Z,8.80
2019-03-25T03:48:33.009Z,11.90
2019-03-25T03:49:33.023Z,6.60
2019-03-25T03:50:33.038Z,7.80
2019-03-25T03:51:33.044Z,5.30
2019-03-25T03:52:33.055Z,8.00
2019-03-25T03:53:33.070Z,10.60
2019-03-25T03:54:33.082Z,8.20
2019-03-25T03:55:33.096Z,9.70
2019-03-25T03:56:33.105Z,9.60
2019-03-25T03:57:33.130Z,10.00
2019-03-25T03:58:33.131Z,7.10
2019-03-25T03:59:33.145Z,8.30
2019-03-25T04:00:33.153Z,7.30
2019-03-25T04:01:33.168Z,8.10
2019-03-25T04:02:33.182Z,10.30
2019-03-25T04:03:33.190Z,10.10
2019-03-25T04:04:33.201Z,9.80
2019-03-25T04:05:33.217Z,11.00
2019-03-25T04:06:33.229Z,11.10
2019-03-25T04:07:33.241Z,8.60
2019-03-25T04:08:33.261Z,9.80
2019-03-25T04:09:33.267Z,8.50
2019-03-25T04:10:33.277Z,9.10
2019-03-25T04:11:33.286Z,9.60
2019-03-25T04:12:33.302Z,8.40
2019-03-25T04:13:33.313Z,9.40
2019-03-25T04:14:33.327Z,11.40
2019-03-25T04:15:33.343Z,7.90
2019-03-25T04:16:33.350Z,8.30
2019-03-25T04:17:33.365Z,12.80
2019-03-25T04:18:33.375Z,8.40
2019-03-25T04:19:33.391Z,7.60
2019-03-25T04:20:33.404Z,8.50
2019-03-25T04:21:33.407Z,8.90
2019-03-25T04:22:33.423Z,7.70
2019-03-25T04:23:33.434Z,10.00
2019-03-25T04:24:33.444Z,10.50
2019-03-25T04:25:33.465Z,6.90
2019-03-25T04:26:33.473Z,6.10
2019-03-25T04:27:33.499Z,9.30
2019-03-25T04:28:33.499Z,7.50
2019-03-25T04:29:33.510Z,8.60
2019-03-25T04:30:33.518Z,9.50
2019-03-25T04:31:33.533Z,9.10
2019-03-25T04:32:33.540Z,10.20
2019-03-25T04:33:33.555Z,8.90
2019-03-25T04:34:33.569Z,10.60
2019-03-25T04:35:33.580Z,10.90
2019-03-25T04:36:33.595Z,9.10
2019-03-25T04:37:33.607Z,9.00
2019-03-25T04:38:33.616Z,11.90
2019-03-25T04:39:33.632Z,11.60
2019-03-25T04:40:33.644Z,7.90
2019-03-25T04:41:33.669Z,8.30
2019-03-25T04:42:33.666Z,11.60
2019-03-25T04:43:33.677Z,9.40
2019-03-25T04:44:33.690Z,10.40
2019-03-25T04:45:33.700Z,7.10
2019-03-25T04:46:33.714Z,12.30
2019-03-25T04:47:33.726Z,8.50
2019-03-25T04:48:33.740Z,10.60
2019-03-25T04:49:33.752Z,9.50
2019-03-25T04:50:33.763Z,9.00
2019-03-25T04:51:33.773Z,8.50
2019-03-25T04:52:33.789Z,7.10
2019-03-25T04:53:33.804Z,6.70
2019-03-25T04:54:33.814Z,7.80
2019-03-25T04:55:33.828Z,8.40
2019-03-25T04:56:39.625Z,11.40
2019-03-25T04:57:33.850Z,8.80
2019-03-25T04:58:33.865Z,7.10
2019-03-25T04:59:33.875Z,8.60
2019-03-25T05:00:33.890Z,7.80
2019-03-25T05:01:33.904Z,8.60
2019-03-25T05:02:33.917Z,6.40
2019-03-25T05:03:33.927Z,5.70
2019-03-25T05:04:33.940Z,7.50
2019-03-25T05:05:35.887Z,8.50
2019-03-25T05:06:33.964Z,10.90
2019-03-25T05:07:33.980Z,8.10
2019-03-25T05:08:33.990Z,9.20
2019-03-25T05:09:34.004Z,7.50
2019-03-25T05:10:34.015Z,10.30
2019-03-25T05:11:34.030Z,8.60
2019-03-25T05:12:34.041Z,7.50
2019-03-25T05:13:34.054Z,10.90
2019-03-25T05:14:34.068Z,11.20
2019-03-25T05:15:34.087Z,7.30
2019-03-25T05:16:34.090Z,8.70
2019-03-25T05:17:34.103Z,8.40
2019-03-25T05:18:34.117Z,9.80
2019-03-25T05:19:34.132Z,8.10
2019-03-25T05:20:34.145Z,10.70
2019-03-25T05:21:34.156Z,9.80
2019-03-25T05:22:34.170Z,12.00
2019-03-25T05:23:34.185Z,10.20
2019-03-25T05:24:34.193Z,10.40
2019-03-25T05:25:34.209Z,10.50
2019-03-25T05:26:34.221Z,6.30
2019-03-25T05:27:34.234Z,9.70
2019-03-25T05:28:34.246Z,10.20
2019-03-25T05:29:34.260Z,12.70
2019-03-25T05:30:34.274Z,10.30
2019-03-25T05:31:34.285Z,12.30
2019-03-25T05:32:34.298Z,7.50
2019-03-25T05:33:34.326Z,6.50
2019-03-25T05:34:34.328Z,9.40
2019-03-25T05:35:34.338Z,10.60
2019-03-25T05:36:34.352Z,10.30
2019-03-25T05:37:34.364Z,7.90
2019-03-25T05:38:34.376Z,12.60
2019-03-25T05:39:34.391Z,13.50
2019-03-25T05:40:34.403Z,9.70
2019-03-25T05:41:34.420Z,10.40
2019-03-25T05:42:34.445Z,9.60
2019-03-25T05:43:34.529Z,11.40
2019-03-25T05:44:34.518Z,11.20
2019-03-25T05:45:34.523Z,8.80
2019-03-25T05:46:34.516Z,10.30
2019-03-25T05:47:34.527Z,11.50
2019-03-25T05:48:34.582Z,10.40
2019-03-25T05:49:34.580Z,15.10
2019-03-25T05:50:34.583Z,11.00
2019-03-25T05:51:34.581Z,8.40
2019-03-25T05:52:34.583Z,9.00
2019-03-25T05:53:34.591Z,13.10
2019-03-25T05:54:34.591Z,13.90
2019-03-25T05:55:34.607Z,9.70
2019-03-25T05:56:34.615Z,9.30
2019-03-25T05:57:34.629Z,12.20
2019-03-25T05:58:34.648Z,12.50
2019-03-25T05:59:34.655Z,13.60
2019-03-25T06:00:34.667Z,10.10
2019-03-25T06:01:34.682Z,10.00
2019-03-25T06:02:34.695Z,12.50
2019-03-25T06:03:34.711Z,11.90
2019-03-25T06:04:34.720Z,11.90
2019-03-25T06:05:34.737Z,10.20
2019-03-25T06:06:34.751Z,9.00
2019-03-25T06:07:34.763Z,12.70
2019-03-25T06:08:34.772Z,12.90
2019-03-25T06:09:34.785Z,13.60
2019-03-25T06:10:34.801Z,14.60
2019-03-25T06:11:34.813Z,12.10
2019-03-25T06:12:34.824Z,11.00
2019-03-25T06:13:34.837Z,11.80
2019-03-25T06:14:34.854Z,11.20
2019-03-25T06:15:34.876Z,15.40
2019-03-25T06:16:34.874Z,12.10
2019-03-25T06:17:34.886Z,14.10
2019-03-25T06:18:34.902Z,11.80
2019-03-25T06:19:34.912Z,11.60
2019-03-25T06:20:34.924Z,13.80
2019-03-25T06:21:34.937Z,12.70
2019-03-25T06:22:34.951Z,17.20
2019-03-25T06:23:34.963Z,12.50
2019-03-25T06:24:34.975Z,14.30
2019-03-25T06:25:34.989Z,13.50
2019-03-25T06:26:35.000Z,12.40
2019-03-25T06:27:35.021Z,11.70
2019-03-25T06:28:35.026Z,13.60
2019-03-25T06:29:35.036Z,17.00
2019-03-25T06:30:35.049Z,13.40
2019-03-25T06:31:35.061Z,15.00
2019-03-25T06:32:35.076Z,15.10
2019-03-25T06:33:35.087Z,11.80
2019-03-25T06:34:35.101Z,16.30
2019-03-25T06:35:35.110Z,17.10
2019-03-25T06:36:35.126Z,14.90
2019-03-25T06:37:35.136Z,13.30
2019-03-25T06:38:35.148Z,14.00
2019-03-25T06:39:35.168Z,14.10
2019-03-25T06:40:35.177Z,11.40
2019-03-25T06:41:35.185Z,16.90
2019-03-25T06:42:35.196Z,10.90
2019-03-25T06:43:35.208Z,15.40
2019-03-25T06:44:35.219Z,16.10
2019-03-25T06:45:35.233Z,11.00
2019-03-25T06:46:35.247Z,12.50
2019-03-25T06:47:35.289Z,12.80
2019-03-25T06:48:35.269Z,14.00
2019-03-25T06:49:35.281Z,13.70
2019-03-25T06:50:35.293Z,15.40
2019-03-25T06:51:35.306Z,13.80
2019-03-25T06:52:35.322Z,13.40
2019-03-25T06:53:35.329Z,14.60
2019-03-25T06:54:35.341Z,15.10
2019-03-25T06:55:35.353Z,11.70
2019-03-25T06:56:35.364Z,16.80
2019-03-25T06:57:35.376Z,13.60
2019-03-25T06:58:35.388Z,12.60
2019-03-25T06:59:35.400Z,12.10
2019-03-25T07:00:35.410Z,14.80
2019-03-25T07:01:35.421Z,15.50
2019-03-25T07:02:35.434Z,12.20
2019-03-25T07:03:35.448Z,12.70
2019-03-25T07:04:35.457Z,16.70
2019-03-25T07:05:35.469Z,17.10
2019-03-25T07:06:35.482Z,13.20
2019-03-25T07:07:35.491Z,16.80
2019-03-25T07:08:35.503Z,13.30
2019-03-25T07:09:35.515Z,16.20
2019-03-25T07:10:35.525Z,16.50
2019-03-25T07:11:35.538Z,15.40
2019-03-25T07:12:35.551Z,13.80
2019-03-25T07:13:35.562Z,11.10
2019-03-25T07:14:35.578Z,14.80
2019-03-25T07:15:35.584Z,13.20
2019-03-25T07:16:35.598Z,16.30
2019-03-25T07:17:35.611Z,13.30
2019-03-25T07:18:35.621Z,14.00
2019-03-25T07:19:35.632Z,14.40
2019-03-25T07:20:35.644Z,15.80
2019-03-25T07:21:35.655Z,14.80
2019-03-25T07:22:35.668Z,14.70
2019-03-25T07:23:35.679Z,12.80
2019-03-25T07:24:35.687Z,12.60
2019-03-25T07:25:35.700Z,17.00
2019-03-25T07:26:35.711Z,12.50
2019-03-25T07:27:36.999Z,13.30
2019-03-25T07:28:35.736Z,13.10
2019-03-25T07:29:35.746Z,12.80
2019-03-25T07:30:35.760Z,13.90
2019-03-25T07:31:35.770Z,12.60
2019-03-25T07:32:35.781Z,14.40
2019-03-25T07:33:35.793Z,12.70
2019-03-25T07:34:35.805Z,13.00
2019-03-25T07:35:35.818Z,16.00
2019-03-25T07:36:35.828Z,13.70
2019-03-25T07:37:35.842Z,12.10
2019-03-25T07:38:35.855Z,13.70
2019-03-25T07:39:35.865Z,14.50
2019-03-25T07:40:35.878Z,13.50
2019-03-25T07:41:35.890Z,13.90
2019-03-25T07:42:35.902Z,12.40
2019-03-25T07:43:35.914Z,14.70
2019-03-25T07:44:35.934Z,12.00
2019-03-25T07:45:35.937Z,14.00
2019-03-25T07:46:35.949Z,12.50
2019-03-25T07:47:35.964Z,11.70
2019-03-25T07:48:35.975Z,14.90
2019-03-25T07:49:35.988Z,14.00
2019-03-25T07:50:35.999Z,14.40
2019-03-25T07:51:36.013Z,11.30
2019-03-25T07:52:36.031Z,12.90
2019-03-25T07:53:36.038Z,13.30
2019-03-25T07:54:36.052Z,12.00
2019-03-25T07:55:36.065Z,12.50
2019-03-25T07:56:36.085Z,11.80
2019-03-25T07:57:43.710Z,12.30
2019-03-25T07:58:36.101Z,12.70
2019-03-25T07:59:36.112Z,11.40
2019-03-25T08:00:36.126Z,12.20
2019-03-25T08:01:36.136Z,11.80
2019-03-25T08:02:36.150Z,11.60
2019-03-25T08:03:36.174Z,11.90
2019-03-25T08:04:38.616Z,10.70
2019-03-25T08:05:36.199Z,11.70
2019-03-25T08:06:36.204Z,10.50
2019-03-25T08:07:36.221Z,11.00
2019-03-25T08:08:36.225Z,10.50
2019-03-25T08:09:36.258Z,12.70
2019-03-25T08:10:36.285Z,9.20
2019-03-25T08:11:36.320Z,9.90
2019-03-25T08:12:36.350Z,9.30
2019-03-25T08:13:36.359Z,10.00
2019-03-25T08:14:36.355Z,9.30
2019-03-25T08:15:36.373Z,10.40
2019-03-25T08:16:36.396Z,9.80
2019-03-25T08:17:36.412Z,10.60
2019-03-25T08:18:36.404Z,9.20
2019-03-25T08:19:36.401Z,11.40
2019-03-25T08:20:36.396Z,8.60
2019-03-25T08:21:36.394Z,10.00
2019-03-25T08:22:36.409Z,11.10
2019-03-25T08:23:36.420Z,8.20
2019-03-25T08:24:36.435Z,9.80
2019-03-25T08:25:36.448Z,10.80
2019-03-25T08:26:36.461Z,10.60
2019-03-25T08:27:36.473Z,10.10
2019-03-25T08:28:36.491Z,10.30
2019-03-25T08:29:36.500Z,9.30
2019-03-25T08:30:36.514Z,11.20
2019-03-25T08:31:36.529Z,8.90
2019-03-25T08:32:36.555Z,9.90
2019-03-25T08:33:36.558Z,9.30
2019-03-25T08:34:36.569Z,8.80
2019-03-25T08:35:36.581Z,7.20
2019-03-25T08:36:36.595Z,9.70
2019-03-25T08:37:36.607Z,9.00
2019-03-25T08:38:36.624Z,8.10
2019-03-25T08:39:36.637Z,9.50
2019-03-25T08:40:36.647Z,7.90
2019-03-25T08:41:36.660Z,7.30
2019-03-25T08:42:36.679Z,8.10
2019-03-25T08:43:36.691Z,7.30
2019-03-25T08:44:36.702Z,8.20
2019-03-25T08:45:36.716Z,8.70
2019-03-25T08:46:36.730Z,6.90
2019-03-25T08:47:36.747Z,7.80
2019-03-25T08:48:36.762Z,7.90
2019-03-25T08:49:36.778Z,6.90
2019-03-25T08:50:36.785Z,9.00
2019-03-25T08:51:36.799Z,6.60
2019-03-25T08:52:36.810Z,7.20
2019-03-25T08:53:36.825Z,7.30
2019-03-25T08:54:37.928Z,8.10
2019-03-25T08:55:36.851Z,8.90
2019-03-25T08:56:36.866Z,9.60
2019-03-25T08:57:36.881Z,6.30
2019-03-25T08:58:36.894Z,7.20
2019-03-25T08:59:36.910Z,6.90
2019-03-25T09:00:36.922Z,8.20
2019-03-25T09:01:36.941Z,6.80
2019-03-25T09:02:36.955Z,6.60
2019-03-25T09:03:36.964Z,6.90
2019-03-25T09:04:36.979Z,7.80
2019-03-25T09:05:37.002Z,8.60
2019-03-25T09:06:37.011Z,8.10
2019-03-25T09:07:37.080Z,5.20
2019-03-25T09:08:37.037Z,6.00
2019-03-25T09:09:37.051Z,7.10
2019-03-25T09:10:37.068Z,9.20
2019-03-25T09:11:37.081Z,8.40
2019-03-25T09:12:37.093Z,6.00
2019-03-25T09:13:37.108Z,5.90
2019-03-25T09:14:37.125Z,9.20
2019-03-25T09:15:37.139Z,6.60
2019-03-25T09:16:37.151Z,4.60
2019-03-25T09:17:37.166Z,6.80
2019-03-25T09:18:37.183Z,5.90
2019-03-25T09:19:37.196Z,6.60
2019-03-25T09:20:37.214Z,7.50
2019-03-25T09:21:37.226Z,3.80
2019-03-25T09:22:37.244Z,8.50
2019-03-25T09:23:37.258Z,5.30
2019-03-25T09:24:37.272Z,5.10
2019-03-25T09:25:37.285Z,5.40
2019-03-25T09:26:37.302Z,8.10
2019-03-25T09:27:37.316Z,6.80
2019-03-25T09:28:37.333Z,6.30
2019-03-25T09:29:37.345Z,6.80
2019-03-25T09:30:37.360Z,7.90
2019-03-25T09:31:37.374Z,7.60
2019-03-25T09:32:37.386Z,4.30
2019-03-25T09:33:37.407Z,6.90
2019-03-25T09:34:37.421Z,4.70
2019-03-25T09:35:37.435Z,4.80
2019-03-25T09:36:37.451Z,6.20
2019-03-25T09:37:37.468Z,5.80
2019-03-25T09:38:37.489Z,6.20
2019-03-25T09:39:37.497Z,5.30
2019-03-25T09:40:37.516Z,5.40
2019-03-25T09:41:37.530Z,5.90
2019-03-25T09:42:37.546Z,6.40
2019-03-25T09:43:37.561Z,4.40
2019-03-25T09:44:37.577Z,6.00
2019-03-25T09:45:37.592Z,6.10
2019-03-25T09:46:37.610Z,6.80
2019-03-25T09:47:37.955Z,5.30
2019-03-25T09:48:37.641Z,6.50
2019-03-25T09:49:37.658Z,8.20
2019-03-25T09:50:37.675Z,8.20
2019-03-25T09:51:37.692Z,7.00
2019-03-25T09:52:38.719Z,5.70
2019-03-25T09:53:37.726Z,5.10
2019-03-25T09:54:37.740Z,5.90
2019-03-25T09:55:37.758Z,7.40
2019-03-25T09:56:37.776Z,3.90
2019-03-25T09:57:37.791Z,6.50
2019-03-25T09:58:37.808Z,5.40
2019-03-25T09:59:37.823Z,3.80
2019-03-25T10:00:37.845Z,3.80
2019-03-25T10:01:37.862Z,4.70
2019-03-25T10:02:37.872Z,5.00
2019-03-25T10:03:37.889Z,12.10
2019-03-25T10:04:37.905Z,5.50
2019-03-25T10:05:37.925Z,5.30
2019-03-25T10:06:37.938Z,5.60
2019-03-25T10:07:37.956Z,5.20
2019-03-25T10:08:37.973Z,3.50
2019-03-25T10:09:37.991Z,4.50
2019-03-25T10:10:38.006Z,3.60
2019-03-25T10:11:38.030Z,4.70
2019-03-25T10:12:38.040Z,4.40
2019-03-25T10:13:38.058Z,5.50
2019-03-25T10:14:38.076Z,5.20
2019-03-25T10:15:38.102Z,4.70
2019-03-25T10:16:38.196Z,5.90
2019-03-25T10:17:38.183Z,4.30
2019-03-25T10:18:38.185Z,5.00
2019-03-25T10:19:38.186Z,4.60
2019-03-25T10:20:38.257Z,7.10
2019-03-25T10:21:38.251Z,4.40
2019-03-25T10:22:38.248Z,6.80
2019-03-25T10:23:38.262Z,6.90
2019-03-25T10:24:38.247Z,3.80
2019-03-25T10:25:38.260Z,7.70
2019-03-25T10:26:38.280Z,9.50
2019-03-25T10:27:38.295Z,4.50
2019-03-25T10:28:47.801Z,5.50
2019-03-25T10:29:38.330Z,5.90
2019-03-25T10:30:38.345Z,3.70
2019-03-25T10:31:38.362Z,7.90
2019-03-25T10:32:38.378Z,6.40
2019-03-25T10:33:38.397Z,6.70
2019-03-25T10:34:38.412Z,3.80
2019-03-25T10:35:38.430Z,8.50
2019-03-25T10:36:38.446Z,3.50
2019-03-25T10:37:38.461Z,3.20
2019-03-25T10:38:38.480Z,4.60
2019-03-25T10:39:38.498Z,5.10
2019-03-25T10:40:38.515Z,4.20
2019-03-25T10:41:38.683Z,6.50
2019-03-25T10:42:38.547Z,6.30
2019-03-25T10:43:38.568Z,4.10
2019-03-25T10:44:38.580Z,4.60
2019-03-25T10:45:38.599Z,4.90
2019-03-25T10:46:38.617Z,4.10
2019-03-25T10:47:38.634Z,7.10
2019-03-25T10:48:38.648Z,4.20
2019-03-25T10:49:38.665Z,4.00
2019-03-25T10:50:38.683Z,3.80
2019-03-25T10:51:38.699Z,4.40
2019-03-25T10:52:38.716Z,5.00
2019-03-25T10:53:38.735Z,3.80
2019-03-25T10:54:38.799Z,4.20
2019-03-25T10:55:38.767Z,6.90
2019-03-25T10:56:41.873Z,7.30
2019-03-25T10:57:38.801Z,4.70
2019-03-25T10:58:38.819Z,6.20
2019-03-25T10:59:38.834Z,5.00
2019-03-25T11:00:38.851Z,3.50
2019-03-25T11:01:38.872Z,4.30
2019-03-25T11:02:38.887Z,5.30
2019-03-25T11:03:38.904Z,4.10
2019-03-25T11:04:38.920Z,5.10
2019-03-25T11:05:38.937Z,4.50
2019-03-25T11:06:38.956Z,5.50
2019-03-25T11:07:39.125Z,3.10
2019-03-25T11:08:38.991Z,5.20
2019-03-25T11:09:39.005Z,2.10
2019-03-25T11:10:39.028Z,3.30
2019-03-25T11:11:39.044Z,4.80
2019-03-25T11:12:39.059Z,5.50
2019-03-25T11:13:39.079Z,3.00
2019-03-25T11:14:39.100Z,3.70
2019-03-25T11:15:39.114Z,2.00
2019-03-25T11:16:39.131Z,4.90
2019-03-25T11:17:39.151Z,3.40
2019-03-25T11:18:39.168Z,5.00
2019-03-25T11:19:39.187Z,2.00
2019-03-25T11:20:39.204Z,2.50
2019-03-25T11:21:39.223Z,4.60
2019-03-25T11:22:39.241Z,4.50
2019-03-25T11:23:39.258Z,3.20
2019-03-25T11:24:39.278Z,6.00
2019-03-25T11:25:39.295Z,4.00
2019-03-25T11:26:39.312Z,3.10
2019-03-25T11:27:39.327Z,3.00
2019-03-25T11:28:39.345Z,3.30
2019-03-25T11:29:39.364Z,2.70
2019-03-25T11:30:39.379Z,4.90
2019-03-25T11:31:39.395Z,3.20
2019-03-25T11:32:39.409Z,2.80
2019-03-25T11:33:39.430Z,4.30
2019-03-25T11:34:39.445Z,5.40
2019-03-25T11:35:39.461Z,2.80
2019-03-25T11:36:39.476Z,5.10
2019-03-25T11:37:39.494Z,3.40
2019-03-25T11:38:39.509Z,4.80
2019-03-25T11:39:39.524Z,3.80
2019-03-25T11:40:39.539Z,5.00
2019-03-25T11:41:39.559Z,3.10
2019-03-25T11:42:39.573Z,3.90
2019-03-25T11:43:39.590Z,2.60
2019-03-25T11:44:39.603Z,6.00
2019-03-25T11:45:39.620Z,4.50
2019-03-25T11:46:39.634Z,6.90
2019-03-25T11:47:39.651Z,5.80
2019-03-25T11:48:39.669Z,6.90
2019-03-25T11:49:39.680Z,7.30
2019-03-25T11:50:39.696Z,5.10
2019-03-25T11:51:39.712Z,2.90
2019-03-25T11:52:39.727Z,5.00
2019-03-25T11:53:39.742Z,4.80
2019-03-25T11:54:39.758Z,3.70
2019-03-25T11:55:39.777Z,4.70
2019-03-25T11:56:39.789Z,7.10
2019-03-25T11:57:39.804Z,3.90
2019-03-25T11:58:39.821Z,3.10
2019-03-25T11:59:39.836Z,5.40
2019-03-25T12:00:39.852Z,3.00
2019-03-25T12:01:39.873Z,2.60
2019-03-25T12:02:39.885Z,6.80
2019-03-25T12:03:39.901Z,7.30
2019-03-25T12:04:39.923Z,3.40
2019-03-25T12:05:40.707Z,2.90
2019-03-25T12:06:39.951Z,3.70
2019-03-25T12:07:39.975Z,1.90
2019-03-25T12:08:40.023Z,4.60
2019-03-25T12:09:41.543Z,3.00
2019-03-25T12:10:40.058Z,2.30
2019-03-25T12:11:40.114Z,4.10
2019-03-25T12:12:40.104Z,4.60
2019-03-25T12:13:40.121Z,5.20
2019-03-25T12:14:40.117Z,3.70
2019-03-25T12:15:40.123Z,3.40
2019-03-25T12:16:40.124Z,6.40
2019-03-25T12:17:40.131Z,4.30
2019-03-25T12:18:40.146Z,1.50
2019-03-25T12:19:40.164Z,4.40
2019-03-25T12:20:40.179Z,3.00
2019-03-25T12:21:40.199Z,4.30
2019-03-25T12:22:40.212Z,2.60
2019-03-25T12:23:40.228Z,2.50
2019-03-25T12:24:40.247Z,3.20
2019-03-25T12:25:40.264Z,5.10
2019-03-25T12:26:40.278Z,4.60
2019-03-25T12:27:40.612Z,3.90
2019-03-25T12:28:40.315Z,3.90
2019-03-25T12:29:40.325Z,2.80
2019-03-25T12:30:40.341Z,7.10
2019-03-25T12:31:40.357Z,4.30
2019-03-25T12:32:40.374Z,3.20
2019-03-25T12:33:40.403Z,4.10
2019-03-25T12:34:40.416Z,2.60
2019-03-25T12:35:40.429Z,2.40
2019-03-25T12:36:40.439Z,3.40
2019-03-25T12:37:40.460Z,4.20
2019-03-25T12:38:40.469Z,2.50
2019-03-25T12:39:40.486Z,4.20
2019-03-25T12:40:40.501Z,5.00
2019-03-25T12:41:40.524Z,2.70
2019-03-25T12:42:40.533Z,2.00
2019-03-25T12:43:40.550Z,3.50
2019-03-25T12:44:40.563Z,3.40
2019-03-25T12:45:40.580Z,1.60
2019-03-25T12:46:40.598Z,2.10
2019-03-25T12:47:40.611Z,3.10
2019-03-25T12:48:40.625Z,1.60
2019-03-25T12:49:40.640Z,2.30
2019-03-25T12:50:40.658Z,3.90
2019-03-25T12:51:40.670Z,3.30
2019-03-25T12:52:40.689Z,3.40
2019-03-25T12:53:40.702Z,1.70
2019-03-25T12:54:40.718Z,3.40
2019-03-25T12:55:40.733Z,4.40
2019-03-25T12:56:40.748Z,4.00
2019-03-25T12:57:40.763Z,2.60
2019-03-25T12:58:40.783Z,1.70
2019-03-25T12:59:41.685Z,3.00
2019-03-25T13:00:40.813Z,2.70
2019-03-25T13:01:52.140Z,2.60
2019-03-25T13:02:40.843Z,2.50
2019-03-25T13:03:40.945Z,2.50
2019-03-25T13:04:40.875Z,3.70
2019-03-25T13:05:40.890Z,3.20
2019-03-25T13:06:40.906Z,2.50
2019-03-25T13:07:40.926Z,3.40
2019-03-25T13:08:40.948Z,1.90